Terminal Aerodrome Forecast
Issued by NWS Corpus Christi, TX

Home | Current Version | Previous Version | Text Only | Print | Product List | Glossary On
Versions: 1 2 3 4 5 6 7 8 9 10 11 12 13 14
000
FTUS44 KCRP 210500
TAFCRP
TAF
KCRP 210537Z 2106/2206 15017KT P6SM BKN015 BKN250
      TEMPO 2106/2109 SCT015
     FM210900 16010KT P6SM SCT015 WS020/16035KT
      TEMPO 2109/2113 BKN015
     FM211500 17018G25KT P6SM SCT035
     FM211900 14022G30KT P6SM FEW035
     FM220300 15014KT P6SM FEW018=

USA.gov is the U.S. government's official web portal to all federal, state and local government web resources and services.